Data for 12/15/2015

Time Sea-Level Adjusted Pressure Absolute Pressure Temperature Relative Humidity Dew Point   
(mb) (inHg) (mb) (inHg) (C) (F) (%) (C) (F)
00:05 1014 29.94 843 24.89 -7.1 19.2 88 -8.8 16.2
00:10 1014 29.94 843 24.89 -7.1 19.2 88 -8.8 16.2
00:15 1014 29.94 843 24.89 -7.2 19.1 88 -8.8 16.1
00:20 1014 29.94 843 24.89 -7.2 19 88 -8.9 16
00:25 1014 29.94 843 24.89 -7.2 19 88 -8.9 16
00:30 1014 29.94 843 24.89 -7.2 19 88 -8.9 15.9
00:35 1014 29.94 843 24.89 -7.2 19 88 -8.9 15.9
00:40 1014 29.94 843 24.89 -7.3 18.9 88 -9 15.9
00:45 1014 29.94 843 24.89 -7.3 18.9 88 -9 15.9
00:50 1014 29.94 843 24.89 -7.3 18.9 88 -9 15.8
00:55 1014 29.94 843 24.89 -7.3 18.8 88 -9 15.7
01:00 1014 29.94 843 24.89 -7.3 18.8 88 -9.1 15.7
01:05 1014 29.94 843 24.89 -7.4 18.8 87 -9.1 15.6
01:10 1014 29.94 843 24.89 -7.4 18.7 88 -9.1 15.6
01:15 1014 29.94 843 24.89 -7.4 18.7 88 -9.1 15.6
01:20 1014 29.94 843 24.89 -7.5 18.6 88 -9.1 15.6
01:25 1014 29.94 843 24.89 -7.5 18.5 88 -9.2 15.4
01:30 1014 29.94 843 24.89 -7.6 18.4 88 -9.2 15.4
01:35 1014 29.94 844 24.92 -7.6 18.3 88 -9.3 15.3
01:40 1014 29.94 844 24.92 -7.6 18.3 87 -9.3 15.2
01:45 1014 29.94 844 24.92 -7.6 18.3 87 -9.4 15.1
01:50 1015 29.97 844 24.92 -7.6 18.3 87 -9.4 15
01:55 1015 29.97 844 24.92 -7.6 18.3 87 -9.4 15.1
02:00 1015 29.97 844 24.92 -7.5 18.5 87 -9.3 15.2
02:05 1015 29.97 844 24.92 -7.5 18.5 87 -9.3 15.2
02:10 1015 29.97 844 24.92 -7.5 18.5 87 -9.3 15.2
02:15 1015 29.97 844 24.92 -7.5 18.5 87 -9.4 15.1
02:20 1014 29.94 844 24.92 -7.5 18.6 87 -9.3 15.2
02:25 1015 29.97 844 24.92 -7.5 18.5 87 -9.4 15.1
02:30 1015 29.97 844 24.92 -7.5 18.5 86 -9.4 15.1
02:35 1015 29.97 844 24.92 -7.5 18.5 87 -9.4 15.1
02:40 1015 29.97 844 24.92 -7.5 18.5 86 -9.4 15.1
02:45 1015 29.97 844 24.92 -7.5 18.6 87 -9.3 15.2
02:50 1015 29.97 844 24.92 -7.5 18.6 87 -9.3 15.3
02:55 1015 29.97 844 24.92 -7.4 18.7 87 -9.3 15.3
03:00 1015 29.97 844 24.92 -7.4 18.7 86 -9.3 15.3
03:05 1015 29.97 844 24.92 -7.3 18.8 86 -9.3 15.3
03:10 1015 29.97 844 24.92 -7.3 18.8 86 -9.3 15.3
03:15 1015 29.97 844 24.92 -7.3 18.8 87 -9.2 15.5
03:20 1015 29.97 844 24.92 -7.3 18.8 86 -9.2 15.4
03:25 1015 29.97 844 24.92 -7.3 18.8 86 -9.3 15.3
03:30 1015 29.97 844 24.92 -7.3 18.8 86 -9.3 15.3
03:35 1015 29.97 844 24.92 -7.3 18.9 86 -9.3 15.3
03:40 1015 29.97 844 24.92 -7.3 18.9 86 -9.2 15.4
03:45 1015 29.97 844 24.92 -7.2 19 86 -9.2 15.4
03:50 1015 29.97 844 24.92 -7.2 19 86 -9.2 15.4
03:55 1015 29.97 844 24.92 -7.2 19 86 -9.2 15.4
04:00 1015 29.97 844 24.92 -7.3 19 86 -9.2 15.4
04:05 1015 29.97 844 24.92 -7.3 18.9 86 -9.3 15.3
04:10 1015 29.97 844 24.92 -7.4 18.7 86 -9.3 15.2
04:15 1015 29.97 844 24.92 -7.4 18.7 86 -9.3 15.2
04:20 1015 29.97 844 24.92 -7.4 18.7 86 -9.4 15.2
04:25 1015 29.97 844 24.92 -7.5 18.6 86 -9.4 15.1
04:30 1015 29.97 844 24.92 -7.5 18.5 86 -9.4 15.1
04:35 1015 29.97 844 24.92 -7.5 18.5 86 -9.4 15.1
04:40 1015 29.97 844 24.92 -7.6 18.4 87 -9.4 15
04:45 1015 29.97 844 24.92 -7.6 18.3 86 -9.5 14.9
04:50 1015 29.97 844 24.92 -7.6 18.3 86 -9.5 14.9
04:55 1015 29.97 844 24.92 -7.6 18.3 86 -9.5 14.8
05:00 1015 29.97 844 24.92 -7.7 18.2 86 -9.6 14.7
05:05 1015 29.97 844 24.92 -7.7 18.1 86 -9.6 14.7
05:10 1015 29.97 844 24.92 -7.7 18.2 86 -9.6 14.7
05:15 1015 29.97 844 24.92 -7.6 18.2 86 -9.6 14.6
05:20 1015 29.97 844 24.92 -7.6 18.4 86 -9.6 14.8
05:25 1015 29.97 845 24.95 -7.5 18.6 85 -9.6 14.8
05:30 1015 29.97 845 24.95 -7.4 18.7 85 -9.5 15
05:35 1015 29.97 845 24.95 -7.3 18.8 85 -9.5 14.9
05:40 1015 29.97 845 24.95 -7.4 18.8 85 -9.4 15.1
05:45 1015 29.97 845 24.95 -7.4 18.7 85 -9.4 15
05:50 1015 29.97 845 24.95 -7.4 18.7 85 -9.5 14.9
05:55 1015 29.97 845 24.95 -7.5 18.4 85 -9.6 14.8
06:00 1016 30 845 24.95 -7.6 18.4 86 -9.6 14.8
06:05 1016 30 845 24.95 -7.6 18.4 85 -9.6 14.7
06:10 1016 30 845 24.95 -7.6 18.4 85 -9.6 14.7
06:15 1016 30 845 24.95 -7.5 18.5 86 -9.5 14.8
06:20 1016 30 845 24.95 -7.4 18.6 85 -9.5 14.9
06:25 1016 30 845 24.95 -7.5 18.6 85 -9.5 14.9
06:30 1016 30 845 24.95 -7.5 18.6 86 -9.5 14.9
06:35 1016 30 845 24.95 -7.5 18.5 86 -9.5 14.9
06:40 1016 30 845 24.95 -7.5 18.5 85 -9.5 14.8
06:45 1016 30 845 24.95 -7.6 18.3 85 -9.6 14.7
06:50 1016 30 845 24.95 -7.7 18.1 86 -9.7 14.6
06:55 1016 30 845 24.95 -7.7 18.2 86 -9.6 14.7
07:00 1016 30 845 24.95 -7.6 18.3 86 -9.6 14.8
07:05 1016 30 845 24.95 -7.6 18.3 86 -9.5 14.8
07:10 1016 30 845 24.95 -7.6 18.3 86 -9.5 14.9
07:15 1016 30 845 24.95 -7.5 18.4 86 -9.5 14.9
07:20 1016 30 845 24.95 -7.5 18.4 86 -9.5 14.9
07:25 1016 30 845 24.95 -7.5 18.5 86 -9.5 15
07:30 1016 30 845 24.95 -7.5 18.5 86 -9.5 15
07:35 1016 30 845 24.95 -7.5 18.5 86 -9.5 14.9
07:40 1016 30 845 24.95 -7.5 18.4 86 -9.5 15
07:45 1016 30 845 24.95 -7.5 18.4 86 -9.5 15
07:50 1016 30 845 24.95 -7.5 18.5 86 -9.5 14.9
07:55 1016 30 845 24.95 -7.5 18.5 86 -9.5 14.9
08:00 1016 30 846 24.98 -7.5 18.4 86 -9.5 15
08:05 1016 30 846 24.98 -7.6 18.4 86 -9.5 14.9
08:10 1016 30 846 24.98 -7.6 18.3 86 -9.5 14.9
08:15 1016 30 846 24.98 -7.7 18.2 87 -9.5 14.8
08:20 1016 30 846 24.98 -7.7 18.1 86 -9.6 14.7
08:25 1016 30 846 24.98 -7.8 18.1 87 -9.6 14.7
08:30 1016 30 846 24.98 -7.8 17.9 87 -9.7 14.6
08:35 1016 30 846 24.98 -7.9 17.8 87 -9.8 14.4
08:40 1016 30 846 24.98 -8 17.5 87 -9.8 14.3
08:45 1016 30 846 24.98 -8.2 17.3 87 -9.9 14.2
08:50 1016 30 846 24.98 -8.2 17.2 87 -10 14
08:55 1016 30 846 24.98 -8.3 17.1 88 -10 14.1
09:00 1016 30 846 24.98 -8.2 17.2 88 -9.9 14.1
09:05 1016 30 846 24.98 -8.1 17.3 87 -9.9 14.2
09:10 1016 30 846 24.98 -8.1 17.5 87 -9.9 14.3
09:15 1016 30 846 24.98 -8 17.6 87 -9.8 14.3
09:20 1016 30 846 24.98 -7.9 17.7 87 -9.8 14.4
09:25 1016 30 846 24.98 -7.9 17.9 86 -9.8 14.4
09:30 1016 30 846 24.98 -7.8 17.9 86 -9.8 14.4
09:35 1016 30 846 24.98 -7.7 18.1 86 -9.7 14.5
09:40 1016 30 846 24.98 -7.6 18.2 86 -9.6 14.7
09:45 1016 30 846 24.98 -7.5 18.6 86 -9.5 15
09:50 1016 30 846 24.98 -7.3 18.8 85 -9.4 15.1
09:55 1017 30.03 846 24.98 -7.2 19 85 -9.4 15.1
10:00 1017 30.03 846 24.98 -7.2 19 85 -9.4 15.1
10:05 1017 30.03 846 24.98 -7.2 19.1 84 -9.4 15
10:10 1017 30.03 846 24.98 -7.2 19 84 -9.4 15
10:15 1017 30.03 846 24.98 -7.3 19 85 -9.4 15.1
10:20 1017 30.03 846 24.98 -7.3 18.9 85 -9.4 15
10:25 1017 30.03 846 24.98 -7.3 18.9 85 -9.4 15.1
10:30 1017 30.03 846 24.98 -7.2 19 84 -9.5 14.9
10:35 1017 30.03 846 24.98 -7.1 19.2 84 -9.4 15
10:40 1017 30.03 846 24.98 -7.1 19.3 83 -9.4 15
10:45 1017 30.03 846 24.98 -6.9 19.6 83 -9.4 15.2
10:50 1017 30.03 846 24.98 -6.9 19.7 82 -9.4 15
10:55 1017 30.03 846 24.98 -7 19.3 83 -9.5 14.9
11:00 1017 30.03 846 24.98 -7.1 19.2 83 -9.5 14.9
11:05 1017 30.03 846 24.98 -7.2 19.1 83 -9.6 14.7
11:10 1017 30.03 846 24.98 -7.6 18.3 85 -9.7 14.6
11:15 1017 30.03 846 24.98 -7.7 18.1 87 -9.5 14.8
11:20 1017 30.03 846 24.98 -7.6 18.4 85 -9.7 14.6
11:25 1017 30.03 846 24.98 -7.6 18.4 85 -9.6 14.7
11:30 1017 30.03 846 24.98 -7.6 18.4 86 -9.6 14.8
11:35 1017 30.03 846 24.98 -7.5 18.5 85 -9.6 14.7
11:40 1017 30.03 846 24.98 -7.6 18.3 87 -9.5 14.9
11:45 1017 30.03 846 24.98 -7.2 19 85 -9.3 15.2
11:50 1017 30.03 846 24.98 -7 19.5 82 -9.5 15
11:55 1017 30.03 846 24.98 -7.1 19.2 83 -9.5 15
12:00 1017 30.03 846 24.98 -7 19.4 83 -9.5 15
12:05 1017 30.03 846 24.98 -7.2 19.1 85 -9.4 15.2
12:10 1017 30.03 846 24.98 -6.7 19.9 82 -9.3 15.3
12:15 1016 30 846 24.98 -6.3 20.7 81 -9.1 15.7
12:20 1016 30 846 24.98 -5.9 21.4 79 -9 15.9
12:25 1016 30 846 24.98 -5.8 21.6 78 -9 15.8
12:30 1016 30 846 24.98 -5.7 21.7 78 -9.1 15.7
12:35 1016 30 846 24.98 -5.6 21.9 77 -9 15.9
12:40 1016 30 846 24.98 -5.5 22 77 -9 15.8
12:45 1016 30 845 24.95 -5.5 22 77 -9 15.9
12:50 1016 30 845 24.95 -5.4 22.2 76 -9.1 15.6
12:55 1016 30 845 24.95 -5.2 22.6 75 -9 15.9
13:00 1016 30 845 24.95 -5.1 22.8 74 -9 15.8
13:05 1016 30 845 24.95 -5 23 74 -8.9 16
13:10 1016 30 845 24.95 -4.9 23.2 75 -8.7 16.3
13:15 1016 30 845 24.95 -4.9 23.1 75 -8.8 16.2
13:20 1016 30 845 24.95 -4.9 23.2 74 -8.9 16
13:25 1016 30 845 24.95 -4.8 23.3 75 -8.7 16.4
13:30 1016 30 845 24.95 -4.7 23.5 74 -8.6 16.4
13:35 1016 30 845 24.95 -4.7 23.6 75 -8.5 16.7
13:40 1016 30 845 24.95 -5 23.1 75 -8.7 16.3
13:45 1016 30 845 24.95 -4.8 23.3 74 -8.8 16.1
13:50 1016 30 845 24.95 -4.8 23.4 74 -8.7 16.4
13:55 1016 30 845 24.95 -4.6 23.7 73 -8.7 16.3
14:00 1016 30 845 24.95 -4.8 23.3 74 -8.9 16.1
14:05 1016 30 845 24.95 -4.8 23.3 73 -9 15.8
14:10 1016 30 845 24.95 -4.7 23.5 73 -8.9 15.9
14:15 1016 30 845 24.95 -4.6 23.8 73 -8.7 16.4
14:20 1016 30 845 24.95 -4.7 23.6 74 -8.6 16.4
14:25 1016 30 845 24.95 -4.6 23.7 74 -8.7 16.4
14:30 1016 30 845 24.95 -4.5 24 71 -8.9 16
14:35 1016 30 845 24.95 -4.4 24.1 72 -8.7 16.4
14:40 1016 30 845 24.95 -4.4 24 72 -8.7 16.4
14:45 1016 30 845 24.95 -4.4 24 72 -8.7 16.4
14:50 1016 30 845 24.95 -4.4 24.2 73 -8.5 16.6
14:55 1016 30 845 24.95 -4.2 24.5 71 -8.6 16.5
15:00 1016 30 845 24.95 -3.7 25.3 68 -8.8 16.1
15:05 1016 30 845 24.95 -4.1 24.6 72 -8.5 16.7
15:10 1015 29.97 845 24.95 -4.9 23.1 76 -8.6 16.5
15:15 1015 29.97 845 24.95 -5.1 22.9 75 -8.8 16.2
15:20 1015 29.97 845 24.95 -5.1 22.9 75 -8.8 16.2
15:25 1015 29.97 845 24.95 -4.8 23.4 75 -8.6 16.5
15:30 1015 29.97 845 24.95 -4.5 23.9 74 -8.5 16.7
15:35 1015 29.97 845 24.95 -4.5 24 73 -8.5 16.6
15:40 1015 29.97 845 24.95 -4.5 23.9 74 -8.5 16.7
15:45 1015 29.97 845 24.95 -4.4 24.1 74 -8.4 16.9
15:50 1015 29.97 845 24.95 -4.2 24.4 73 -8.3 17
15:55 1015 29.97 845 24.95 -4.2 24.4 73 -8.4 16.9
16:00 1015 29.97 845 24.95 -4.1 24.6 73 -8.3 17
16:05 1015 29.97 845 24.95 -4.1 24.5 73 -8.2 17.2
16:10 1015 29.97 845 24.95 -4.2 24.4 73 -8.4 16.9
16:15 1015 29.97 845 24.95 -4.4 24.1 73 -8.5 16.7
16:20 1015 29.97 845 24.95 -4.6 23.8 73 -8.7 16.3
16:25 1015 29.97 845 24.95 -4.7 23.6 72 -8.9 16
16:30 1015 29.97 845 24.95 -4.9 23.1 74 -8.8 16.1
16:35 1015 29.97 845 24.95 -4.8 23.3 73 -8.9 15.9
16:40 1015 29.97 845 24.95 -4.6 23.7 71 -9 15.8
16:45 1015 29.97 845 24.95 -4.3 24.2 70 -9 15.8
16:50 1015 29.97 845 24.95 -3.8 25.2 68 -8.9 16
16:55 1015 29.97 845 24.95 -3.5 25.7 66 -8.9 15.9
17:00 1015 29.97 845 24.95 -3.5 25.7 66 -9 15.9
17:05 1015 29.97 845 24.95 -3.6 25.4 68 -8.8 16.2
17:10 1015 29.97 845 24.95 -4.2 24.4 71 -8.7 16.3
17:15 1015 29.97 845 24.95 -4.3 24.2 70 -8.9 15.9
17:20 1015 29.97 845 24.95 -4 24.9 69 -8.9 16
17:25 1015 29.97 845 24.95 -4.2 24.4 70 -8.9 16.1
17:30 1015 29.97 845 24.95 -4.5 24 73 -8.7 16.4
17:35 1015 29.97 845 24.95 -4.6 23.7 74 -8.6 16.5
17:40 1015 29.97 845 24.95 -4.8 23.4 74 -8.7 16.3
17:45 1015 29.97 845 24.95 -4.8 23.4 73 -8.9 16
17:50 1015 29.97 845 24.95 -4.7 23.5 73 -8.8 16.1
17:55 1015 29.97 845 24.95 -4.8 23.4 74 -8.6 16.5
18:00 1015 29.97 845 24.95 -4.8 23.4 74 -8.7 16.4
18:05 1015 29.97 845 24.95 -4.8 23.4 75 -8.5 16.7
18:10 1015 29.97 844 24.92 -4.9 23.3 74 -8.7 16.3
18:15 1015 29.97 845 24.95 -4.7 23.5 74 -8.6 16.5
18:20 1015 29.97 844 24.92 -4.7 23.5 75 -8.5 16.7
18:25 1015 29.97 845 24.95 -4.8 23.4 75 -8.5 16.7
18:30 1015 29.97 844 24.92 -4.8 23.4 73 -9 15.9
18:35 1015 29.97 845 24.95 -4.7 23.6 74 -8.6 16.6
18:40 1015 29.97 845 24.95 -4.7 23.5 74 -8.7 16.3
18:45 1015 29.97 844 24.92 -4.7 23.5 73 -8.8 16.2
18:50 1015 29.97 845 24.95 -4.8 23.3 73 -8.9 16
18:55 1015 29.97 845 24.95 -4.8 23.3 73 -9 15.7
19:00 1015 29.97 844 24.92 -4.9 23.2 72 -9.1 15.6
19:05 1015 29.97 844 24.92 -4.9 23.2 73 -9 15.8
19:10 1015 29.97 844 24.92 -4.9 23.2 72 -9.2 15.4
19:15 1015 29.97 844 24.92 -4.9 23.1 72 -9.3 15.3
19:20 1015 29.97 844 24.92 -5 23 72 -9.4 15.1
19:25 1015 29.97 844 24.92 -4.9 23.1 72 -9.2 15.5
19:30 1015 29.97 844 24.92 -4.9 23.1 72 -9.2 15.5
19:35 1015 29.97 844 24.92 -4.9 23.1 70 -9.6 14.7
19:40 1015 29.97 844 24.92 -4.9 23.2 71 -9.4 15
19:45 1015 29.97 844 24.92 -4.9 23.2 70 -9.5 14.9
19:50 1015 29.97 844 24.92 -4.9 23.1 72 -9.2 15.5
19:55 1015 29.97 844 24.92 -5 23.1 75 -8.7 16.4
20:00 1015 29.97 844 24.92 -5.1 22.8 74 -9 15.8
20:05 1015 29.97 844 24.92 -5.1 22.9 73 -9.2 15.5
20:10 1015 29.97 844 24.92 -5 23.1 72 -9.2 15.4
20:15 1015 29.97 844 24.92 -4.9 23.3 72 -9.1 15.7
20:20 1015 29.97 844 24.92 -4.9 23.2 76 -8.5 16.6
20:25 1015 29.97 844 24.92 -5 22.9 76 -8.7 16.4
20:30 1015 29.97 844 24.92 -5.1 22.8 76 -8.7 16.3
20:35 1015 29.97 844 24.92 -5.2 22.7 76 -8.8 16.2
20:40 1015 29.97 844 24.92 -5.2 22.6 76 -8.9 16
20:45 1015 29.97 844 24.92 -5.2 22.6 75 -9 15.9
20:50 1015 29.97 844 24.92 -5.2 22.6 74 -9.1 15.5
20:55 1015 29.97 844 24.92 -5.2 22.7 73 -9.2 15.4
21:00 1015 29.97 844 24.92 -5.2 22.7 73 -9.2 15.4
21:05 1015 29.97 844 24.92 -5.2 22.7 74 -9.2 15.5
21:10 1015 29.97 844 24.92 -5.2 22.7 74 -9.2 15.5
21:15 1015 29.97 844 24.92 -5.1 22.7 73 -9.3 15.2
21:20 1015 29.97 844 24.92 -5 22.9 71 -9.5 14.9
21:25 1015 29.97 844 24.92 -5 23 72 -9.4 15.1
21:30 1015 29.97 844 24.92 -4.9 23.1 71 -9.5 14.9
21:35 1015 29.97 844 24.92 -5 23 70 -9.6 14.7
21:40 1015 29.97 844 24.92 -5.1 22.9 71 -9.6 14.8
21:45 1015 29.97 845 24.95 -5 23 70 -9.6 14.7
21:50 1015 29.97 845 24.95 -4.9 23.1 69 -9.7 14.5
21:55 1015 29.97 845 24.95 -4.9 23.1 69 -9.8 14.3
22:00 1015 29.97 844 24.92 -4.9 23.2 69 -9.8 14.4
22:05 1015 29.97 844 24.92 -4.8 23.4 68 -9.8 14.4
22:10 1015 29.97 844 24.92 -4.7 23.5 67 -10 14
22:15 1015 29.97 844 24.92 -4.7 23.6 67 -10 14
22:20 1015 29.97 844 24.92 -4.7 23.6 67 -10 14
22:25 1015 29.97 844 24.92 -4.6 23.6 66 -10.1 13.9
22:30 1015 29.97 844 24.92 -4.6 23.7 67 -9.8 14.4
22:35 1015 29.97 844 24.92 -4.6 23.8 67 -9.8 14.4
22:40 1015 29.97 844 24.92 -4.6 23.7 67 -9.7 14.5
22:45 1015 29.97 844 24.92 -4.6 23.6 67 -9.8 14.3
22:50 1015 29.97 844 24.92 -4.6 23.7 67 -9.9 14.1
22:55 1015 29.97 844 24.92 -4.6 23.8 67 -9.9 14.2
23:00 1015 29.97 844 24.92 -4.5 23.8 67 -9.7 14.5
23:05 1015 29.97 844 24.92 -4.5 23.8 67 -9.8 14.3
23:10 1015 29.97 844 24.92 -4.5 23.9 68 -9.5 14.8
23:15 1015 29.97 844 24.92 -4.5 23.8 70 -9.3 15.3
23:20 1015 29.97 844 24.92 -4.6 23.8 68 -9.5 14.9
23:25 1015 29.97 844 24.92 -4.6 23.8 69 -9.4 15.1
23:30 1015 29.97 844 24.92 -4.6 23.7 69 -9.5 15
23:35 1015 29.97 844 24.92 -4.5 23.8 69 -9.4 15
23:40 1015 29.97 844 24.92 -4.5 23.9 68 -9.5 14.8
23:45 1015 29.97 844 24.92 -4.4 24 69 -9.3 15.2
23:50 1015 29.97 844 24.92 -4.5 24 70 -9.2 15.5
23:55 1015 29.97 844 24.92 -4.5 23.9 69 -9.3 15.3
24:00 1015 29.97 844 24.92 -4.6 23.8 70 -9.3 15.3